Central Sierra Snow Lab Weather observations

Data are for 10 minute period ending at time listed.
 Day   Time    Incoming  Reflected   Ave.   Ave.    Ave.    Vector  Max.    Ave.    Total    Snow   
  of    of      Solar     Solar      Air    Rel.    Wind    Wind    Wind   Baro.   Precip.   Depth  
Year   Day     Radiation Radiation   Temp.  Humid.  Speed   Dir.    Gust   Press.                   
2016   (PST)    Kw/m2     Kw/m2       F       %      mph     deg.    mph     mb.     in.      in.   
----------------------------------------------------------------------------------------------------
 240    0:30    0.000     999.000     45.0     45     2.7      31     3.6   794.50    9.62   -2.90  
 240    0:40    0.000     999.000     44.9     44     2.3      31     3.5   794.50    9.62   -2.80  
 240    0:50    0.000     999.000     44.7     45     2.8      30     3.6   794.50    9.61   -2.80  
 240    1:00    0.000     999.000     44.5     44     2.6      32     3.5   794.50    9.61   -2.90  
 240    1:10    0.000     999.000     44.3     44     3.0      30     4.1   794.50    9.62   -3.00  
 240    1:20    0.000     999.000     44.1     44     2.7      33     4.1   794.40    9.62   -2.90  
 240    1:30    0.000     999.000     43.8     44     2.6      32     3.8   794.40    9.62   -2.80  
 240    1:40    0.000     999.000     43.7     44     3.6      27     4.0   794.50    9.62   -2.80  
 240    1:50    0.000     999.000     43.6     44     3.3      30     4.2   794.50    9.62   -2.80  
 240    2:00    0.000     999.000     43.4     43     2.3      35     3.3   794.50    9.62   -2.80  
 240    2:10    0.000     999.000     43.2     43     2.3      37     3.4   794.50    9.62   -2.80  
 240    2:20    0.000     999.000     43.2     42     2.4      31     3.5   794.50    9.61   -2.70  
 240    2:30    0.000     999.000     43.1     42     3.0      32     4.2   794.40    9.62   -2.70  
 240    2:40    0.000     999.000     43.0     42     2.9      30     3.7   794.40    9.62   -2.70  
 240    2:50    0.000     999.000     43.0     43     3.6      28     4.2   794.40    9.62   -2.70  
 240    3:00    0.000     999.000     43.0     43     3.7      27     4.0   794.40    9.62   -2.70  
 240    3:10    0.000     999.000     42.9     43     3.5      25     4.0   794.40    9.62   -2.70  
 240    3:20    0.000     999.000     42.8     43     3.6      25     4.2   794.40    9.62   -2.80  
 240    3:30    0.000     999.000     42.6     43     3.7      27     4.3   794.40    9.62   -2.90  
 240    3:40    0.000     999.000     42.6     42     3.6      27     4.2   794.40    9.62   -2.90  
 240    3:50    0.000     999.000     42.5     43     3.9      29     4.7   794.40    9.62   -2.90  
 240    4:00    0.000     999.000     42.3     44     3.0      32     4.3   794.40    9.62   -2.90  
 240    4:10    0.000     999.000     42.3     43     2.5      33     3.5   794.40    9.62   -2.80  
 240    4:20    0.000     999.000     42.2     44     3.0      31     4.4   794.50    9.62   -2.80  
 240    4:30    0.000     999.000     42.2     44     3.3      32     4.4   794.50    9.62   -2.80  
 240    4:40    0.000     999.000     42.1     43     3.0      32     3.8   794.50    9.62   -2.80  
 240    4:50    0.000     999.000     42.1     44     3.2      30     4.0   794.40    9.62   -2.80  
 240    5:00    0.000     999.000     42.2     44     3.3      32     4.1   794.40    9.62   -2.80  
 240    5:10    0.000     999.000     42.3     45     3.8      28     4.5   794.50    9.62   -2.80  
 240    5:20    0.001     999.000     42.2     45     3.8      30     4.4   794.60    9.62   -2.80  
 240    5:30    0.002     999.000     42.1     44     3.0      31     3.9   794.70    9.62   -2.80  
 240    5:40    0.005     999.000     42.3     45     3.6      30     4.1   794.70    9.62   -2.80  
 240    5:50    0.009     999.000     42.3     45     2.5      35     4.0   794.70    9.62   -2.80  
 240    6:00    0.013     999.000     42.3     45     1.9      38     3.1   794.70    9.62   -2.70  
 240    6:10    0.017     999.000     42.5     46     1.6      38     2.2   794.80    9.62   -2.70  
 240    6:20    0.020     999.000     43.0     46     2.5      34     3.7   794.90    9.62   -2.70  
 240    6:30    0.024     999.000     43.5     46     1.8      43     3.0   795.00    9.63   -2.70  
 240    6:40    0.028     999.000     43.9     47     1.5      44     2.0   795.00    9.62   -2.80  
 240    6:50    0.032     999.000     44.7     49     1.7      44     2.2   795.00    9.62   -2.90  
 240    7:00    0.044     999.000     45.6     49     1.2      50     1.5   795.00    9.62   -2.90  
 240    7:10    0.164     999.000     46.9     48     1.2      50     1.4   795.00    9.62   -3.00  
 240    7:20    0.244     999.000     48.8     46     1.1      38     1.8   795.00    9.62   -3.10  
 240    7:30    0.290     999.000     51.6     41     0.3      31     1.8   794.90    9.62   -3.50  
 240    7:40    0.319     999.000     54.4     39     0.1      31     1.5   794.90    9.62   -3.90  
 240    7:50    0.351     999.000     56.1     37     0.4      31     1.9   794.90    9.62   -4.00  
 240    8:00    0.382     999.000     57.3     37     0.0      31     0.8   794.80    9.62   -4.20  
 240    8:10    0.414     999.000     59.9     27     0.1     306     1.4   794.80    9.61   -4.30  
 240    8:20    0.444     999.000     62.2     22     0.3     316     1.6   794.80    9.61   -4.40  
 240    8:30    0.473     999.000     63.3     22     0.8     177     4.4   794.90    9.62   -4.60  
 240    8:40    0.503     999.000     64.5     21     1.2     251     3.2   794.90    9.62   -4.30  
 240    8:50    0.536     999.000     65.8     18     1.5     263     4.7   794.90    9.62   -4.30  
 240    9:00    0.569     999.000     66.6     17     1.6     194     4.5   794.90    9.62   -4.30  
 240    9:10    0.598     999.000     67.3     18     1.6     234     4.0   794.90    9.61   -4.40  
 240    9:20    0.624     999.000     67.8     16     1.9     204     5.0   794.90    9.62   -4.30  
 240    9:30    0.648     999.000     68.1     15     2.2     255     5.0   794.90    9.61   -4.10  
 240    9:40    0.670     999.000     68.9     14     1.7     216     4.8   794.90    9.62   -4.30  
 240    9:50    0.691     999.000     69.6     16     2.3     200     6.6   795.00    9.61   -4.20  
 240   10:00    0.714     999.000     69.8     16     2.8     218     6.8   795.00    9.61   -4.30  
 240   10:10    0.732     999.000     70.1     16     2.0     224     5.3   795.00    9.61   -4.20  
 240   10:20    0.747     999.000     70.7     16     3.4     181     8.8   795.00    9.61   -4.20  
 240   10:30    0.801     999.000     70.5     16     3.4     184     7.0   794.90    9.61   -4.00  
 240   10:40    0.785     999.000     71.0     16     3.1     195     8.0   794.90    9.61   -4.10  
 240   10:50    0.798     999.000     71.7     16     3.1     196     9.3   794.90    9.61   -4.00  
 240   11:00    0.822     999.000     72.2     15     3.3     206    10.1   794.80    9.61   -4.10  
 240   11:10    0.816     999.000     72.8     15     2.4     226     7.5   794.70    9.61   -4.30  
 240   11:20    0.827     999.000     72.8     15     2.9     231     6.4   794.70    9.61   -4.30  
 240   11:30    0.833     999.000     72.8     15     3.7     241    10.7   794.60    9.61   -4.10  
 240   11:40    0.837     999.000     72.5     15     3.0     240     7.4   794.60    9.61   -4.10  
 240   11:50    0.848     999.000     72.5     15     3.3     251     9.1   794.60    9.61   -4.10  
 240   12:00    0.840     999.000     72.3     14     3.8     226     8.9   794.60    9.61   -4.00  
 240   12:10    0.841     999.000     72.4     14     3.1     240     8.9   794.60    9.61   -3.90  
 240   12:20    0.846     999.000     72.9     14     3.8     256    10.6   794.60    9.61   -4.10  
 240   12:30    0.853     999.000     72.9     13     3.4     214     8.6   794.60    9.61   -3.90  
 240   12:40    0.855     999.000     72.5     14     3.8     220    10.4   794.70    9.61   -3.90  
 240   12:50    0.850     999.000     73.8     14     2.8     203     6.1   794.70    9.60   -3.90  
 240   13:00    0.842     999.000     73.6     14     3.8     246     9.7   794.70    9.61   -4.00  
 240   13:10    0.833     999.000     73.2     15     3.3     224     8.3   794.70    9.61   -4.00  
 240   13:20    0.823     999.000     73.3     16     3.4     231     9.5   794.50    9.61   -4.00  
 240   13:30    0.812     999.000     73.9     16     3.5     223     8.6   794.50    9.61   -3.90  
 240   13:40    0.800     999.000     74.4     16     4.4     202    10.5   794.40    9.61   -3.80  
 240   13:50    0.785     999.000     74.0     16     3.9     204     9.3   794.40    9.61   -3.80  
 240   14:00    0.817     999.000     74.2     16     3.5     222    10.7   794.40    9.61   -3.80  
 240   14:10    0.776     999.000     74.4     16     3.2     250     7.5   794.40    9.61   -3.70  
 240   14:20    0.735     999.000     74.0     17     3.1     210     7.4   794.30    9.61   -3.60  
 240   14:30    0.715     999.000     73.8     17     3.5     233    10.2   794.30    9.61   -3.70  
 240   14:40    0.691     999.000     73.8     18     3.3     201     8.5   794.30    9.61   -3.60  
 240   14:50    0.670     999.000     73.7     18     3.3     214     9.3   794.20    9.61   -3.50  
 240   15:00    0.665     999.000     73.4     19     3.4     208     9.4   794.30    9.61   -3.50  
 240   15:10    0.617     999.000     73.2     19     4.6     217    13.4   794.30    9.61   -3.50  
 240   15:20    0.588     999.000     72.6     20     4.0     218    12.2   794.30    9.61   -3.50  
 240   15:30    0.563     999.000     73.0     20     3.8     221    11.3   794.30    9.61   -3.50  
 240   15:40    0.532     999.000     72.1     20     3.7     249    11.3   794.30    9.61   -3.50  
 240   15:50    0.503     999.000     71.9     21     3.9     233     9.8   794.30    9.61   -3.50  
 240   16:00    0.473     999.000     71.9     21     3.6     212     8.8   794.40    9.61   -3.50  
 240   16:10    0.444     999.000     71.4     22     2.8     227     7.1   794.40    9.61   -3.60  
 240   16:20    0.411     999.000     71.0     22     4.0     239     9.3   794.50    9.61   -3.60  
 240   16:30    0.379     999.000     70.6     24     3.2     242    10.9   794.50    9.61   -3.60  
 240   16:40    0.347     999.000     70.1     24     3.6     222     8.9   794.60    9.61   -3.40  
 240   16:50    0.313     999.000     69.4     25     3.7     243     9.7   794.70    9.61   -3.40  
 240   17:00    0.135     999.000     68.6     26     3.9     236    13.1   794.70    9.60   -3.30  
 240   17:10    0.109     999.000     68.3     26     3.9     236    10.4   794.70    9.61   -3.30  
 240   17:20    0.058     999.000     68.0     27     4.3     237    11.6   794.80    9.60   -3.30  
 240   17:30    0.050     999.000     67.7     27     3.3     266    10.2   794.80    9.61   -3.40  
 240   17:40    0.058     999.000     67.3     28     3.7     276    12.4   794.90    9.61   -3.40  
 240   17:50    0.078     999.000     66.8     28     2.6     245     7.6   794.90    9.61   -3.40  
 240   18:00    0.036     999.000     66.1     29     3.3     230    10.2   794.80    9.61   -3.40  
 240   18:10    0.020     999.000     64.7     30     1.9     226     8.2   794.80    9.60   -3.40  
 240   18:20    0.015     999.000     63.6     32     2.0     214     5.0   794.90    9.61   -3.20  
 240   18:30    0.010     999.000     62.8     33     2.1     190     5.9   795.00    9.61   -3.10  
 240   18:40    0.005     999.000     62.1     34     1.3     199     4.5   795.10    9.61   -3.00  
 240   18:50    0.002     999.000     61.3     35     0.7     190     1.9   795.10    9.60   -3.00  
 240   19:00    0.000     999.000     60.6     36     0.3     223     2.1   795.20    9.61   -3.00  
 240   19:10    0.000     999.000     59.5     38     0.3      99     1.7   795.30    9.61   -3.00  
 240   19:20    0.000     999.000     58.5     39     0.2     110     1.4   795.30    9.61   -3.10  
 240   19:30    0.000     999.000     57.6     41     0.9      44     1.8   795.40    9.61   -3.00  
 240   19:40    0.000     999.000     56.6     43     1.3      29     2.1   795.50    9.61   -3.00  
 240   19:50    0.000     999.000     55.8     43     1.9      26     2.5   795.60    9.61   -3.00  
 240   20:00    0.000     999.000     55.1     45     2.1      29     2.5   795.70    9.61   -3.00  
 240   20:10    0.000     999.000     54.4     46     2.5      29     3.3   795.80    9.61   -3.00  
 240   20:20    0.000     999.000     53.7     47     2.5      28     3.7   795.80    9.61   -3.00  
 240   20:30    0.000     999.000     53.0     47     2.4      28     3.0   795.80    9.61   -2.90  
 240   20:40    0.000     999.000     52.5     47     2.5      24     3.3   795.90    9.61   -3.00  
 240   20:50    0.000     999.000     51.9     48     2.2      28     3.0   796.00    9.61   -3.00  
 240   21:00    0.000     999.000     51.3     49     1.7      34     2.6   796.00    9.61   -2.90  
 240   21:10    0.000     999.000     50.8     50     1.9      30     2.7   796.00    9.61   -2.90  
 240   21:20    0.000     999.000     50.5     50     2.0      31     2.8   796.00    9.62   -3.00  
 240   21:30    0.000     999.000     50.1     50     1.7      30     2.6   796.00    9.61   -2.90  
 240   21:40    0.000     999.000     49.7     51     2.4      29     3.3   796.00    9.61   -2.90  
 240   21:50    0.000     999.000     49.3     50     2.4      30     3.3   796.00    9.61   -2.80  
 240   22:00    0.000     999.000     48.9     50     2.2      33     3.2   796.00    9.61   -2.80  
 240   22:10    0.000     999.000     48.5     50     2.1      30     3.0   796.10    9.62   -2.80  
 240   22:20    0.000     999.000     48.2     50     2.4      29     3.2   796.20    9.61   -2.80  
 240   22:30    0.000     999.000     48.0     50     2.8      28     3.3   796.20    9.61   -2.90  
 240   22:40    0.000     999.000     47.7     50     3.1      27     3.7   796.20    9.61   -2.90  
 240   22:50    0.000     999.000     47.3     49     2.7      32     3.7   796.20    9.61   -2.90  
 240   23:00    0.000     999.000     47.1     49     2.3      35     3.7   796.30    9.61   -2.90  
 240   23:10    0.000     999.000     46.8     49     2.8      33     4.0   796.30    9.61   -2.90  
 240   23:20    0.000     999.000     46.7     48     3.1      30     4.1   796.30    9.62   -2.90  
 240   23:30    0.000     999.000     46.5     48     2.7      30     3.8   796.30    9.62   -2.90  
 240   23:40    0.000     999.000     46.2     49     2.5      31     3.7   796.40    9.62   -3.00  
 240   23:50    0.000     999.000     46.1     49     3.1      26     3.8   796.40    9.62   -3.10  
 241    0:00    0.000     999.000     45.9     49     2.5      30     3.3   796.50    9.61   -3.00  
 241    0:10    0.000     999.000     45.7     50     3.1      28     3.8   796.50    9.62   -2.80  
 241    0:20    0.000     999.000     45.7     50     3.8      25     4.3   796.50    9.62   -2.80  

Return to Central Sierra Snow Lab graphs page.


Western Regional Climate Center,wrcc@dri.edu